Time;durP1;ratioP1;P1;durP2;ratioP2;P2;SDS_P1;SDS_P2;PMS_P1;PMS_P2;Temp;Humidity;BMP_temperature;BMP_pressure;BME280_temperature;BME280_humidity;BME280_pressure;Samples;Min_cycle;Max_cycle;Signal;HPM_P1;HPM_P2
2022/07/28 00:00:38;;;;;;;8.63;6.32;;;18.40;99.90;;;;;;4991595;28;20030;-87
2022/07/28 00:03:04;;;;;;;8.00;6.30;;;18.40;99.90;;;;;;4992280;28;20045;-86
2022/07/28 00:05:30;;;;;;;11.40;7.10;;;18.40;99.90;;;;;;4993428;28;20126;-88
2022/07/28 00:07:55;;;;;;;9.45;6.40;;;18.40;99.90;;;;;;4997469;28;20013;-86
2022/07/28 00:10:21;;;;;;;10.85;6.50;;;18.30;99.90;;;;;;4981986;28;20031;-88
2022/07/28 00:12:47;;;;;;;11.05;6.30;;;18.40;99.90;;;;;;5014617;28;20101;-88
2022/07/28 00:15:13;;;;;;;14.90;6.88;;;18.30;99.90;;;;;;4983361;28;20084;-86
2022/07/28 00:17:39;;;;;;;9.65;6.68;;;18.30;99.90;;;;;;5001875;28;20066;-85
2022/07/28 00:20:05;;;;;;;14.57;6.80;;;18.40;99.90;;;;;;4999586;28;20010;-85
2022/07/28 00:22:31;;;;;;;9.90;6.75;;;18.40;99.90;;;;;;5012902;28;20027;-86
2022/07/28 00:24:57;;;;;;;9.18;6.00;;;18.30;99.90;;;;;;4995923;28;20027;-85
2022/07/28 00:27:23;;;;;;;10.00;6.35;;;18.30;99.90;;;;;;5011619;28;20045;-85
2022/07/28 00:29:49;;;;;;;9.68;5.70;;;18.40;99.90;;;;;;5011308;28;20030;-84
2022/07/28 00:32:16;;;;;;;8.75;5.95;;;18.30;99.90;;;;;;5010675;28;20058;-87
2022/07/28 00:34:42;;;;;;;8.45;6.00;;;18.30;99.90;;;;;;4977835;28;20034;-86
2022/07/28 00:37:08;;;;;;;9.13;5.57;;;18.30;99.90;;;;;;4977167;28;20038;-86
2022/07/28 00:39:34;;;;;;;12.07;6.38;;;18.40;99.90;;;;;;4992721;28;20049;-86
2022/07/28 00:42:00;;;;;;;8.18;6.00;;;18.30;99.90;;;;;;5015097;28;20015;-87
2022/07/28 00:44:26;;;;;;;9.55;6.05;;;18.30;99.90;;;;;;5019963;28;20015;-86
2022/07/28 00:46:52;;;;;;;9.00;6.63;;;18.30;99.90;;;;;;5019738;28;20073;-87
2022/07/28 00:49:18;;;;;;;7.93;5.45;;;18.20;99.90;;;;;;5019699;28;20038;-86
2022/07/28 00:51:45;;;;;;;10.05;5.93;;;18.30;99.90;;;;;;5019865;28;20031;-88
2022/07/28 00:54:11;;;;;;;10.70;6.30;;;18.20;99.90;;;;;;5019678;28;20910;-85
2022/07/28 00:56:37;;;;;;;9.40;5.93;;;18.20;99.90;;;;;;5002821;28;20082;-84
2022/07/28 00:59:03;;;;;;;7.97;5.63;;;18.20;99.90;;;;;;5019504;28;20060;-85
2022/07/28 01:01:29;;;;;;;11.38;6.00;;;18.20;99.90;;;;;;4986912;28;20030;-86
2022/07/28 01:03:58;;;;;;;9.70;5.97;;;18.20;99.90;;;;;;4986974;28;20033;-87
2022/07/28 01:06:55;;;;;;;12.32;6.07;;;18.20;99.90;;;;;;5020346;28;20014;-86
2022/07/28 01:09:37;;;;;;;9.43;5.55;;;18.20;99.90;;;;;;5019854;28;20024;-86
2022/07/28 01:12:12;;;;;;;15.48;5.97;;;18.20;99.90;;;;;;5003292;28;20094;-86
2022/07/28 01:14:45;;;;;;;8.85;5.88;;;18.20;99.90;;;;;;5002996;28;20081;-86
2022/07/28 01:17:34;;;;;;;7.07;5.35;;;18.20;99.90;;;;;;5002725;28;20034;-85
2022/07/28 01:20:24;;;;;;;9.23;5.80;;;18.20;99.90;;;;;;5018022;28;20049;-84
2022/07/28 01:23:11;;;;;;;9.85;5.68;;;18.10;99.90;;;;;;5015105;28;20062;-85
2022/07/28 01:26:14;;;;;;;7.55;5.47;;;18.20;99.90;;;;;;4998242;28;20035;-86
2022/07/28 01:28:58;;;;;;;5.97;4.60;;;18.20;99.90;;;;;;4995120;28;20069;-86
2022/07/28 01:31:29;;;;;;;9.48;5.70;;;18.10;99.90;;;;;;5008944;28;20010;-87
2022/07/28 01:34:07;;;;;;;10.00;5.90;;;18.10;99.90;;;;;;4992225;28;20034;-87
2022/07/28 01:36:44;;;;;;;8.88;5.32;;;18.10;99.90;;;;;;4993644;28;20102;-87
2022/07/28 01:39:13;;;;;;;7.72;5.10;;;18.10;99.90;;;;;;5009845;28;20014;-84
2022/07/28 01:41:42;;;;;;;5.95;4.90;;;18.10;99.90;;;;;;4996075;28;20022;-87
2022/07/28 01:44:14;;;;;;;9.75;5.25;;;18.10;99.90;;;;;;5012796;28;20086;-87
2022/07/28 01:46:42;;;;;;;11.63;5.28;;;18.10;99.90;;;;;;4995710;28;20438;-87
2022/07/28 01:49:11;;;;;;;9.38;4.85;;;18.10;99.90;;;;;;4994297;28;20018;-88
2022/07/28 01:51:38;;;;;;;9.15;4.82;;;18.10;99.90;;;;;;4998442;28;20061;-88
2022/07/28 01:54:06;;;;;;;9.18;5.45;;;18.10;99.90;;;;;;5014868;28;20038;-86
2022/07/28 01:56:33;;;;;;;8.95;5.05;;;18.10;99.90;;;;;;5014892;28;20022;-87
2022/07/28 01:59:06;;;;;;;12.55;4.95;;;18.10;99.90;;;;;;4995382;28;20031;-87
2022/07/28 02:01:37;;;;;;;11.65;5.72;;;18.10;99.90;;;;;;4999299;28;20057;-85
2022/07/28 02:04:06;;;;;;;8.18;4.95;;;18.10;99.90;;;;;;5018955;28;20029;-86
2022/07/28 02:06:34;;;;;;;6.93;4.53;;;18.10;99.90;;;;;;5018661;28;20025;-86
2022/07/28 02:09:03;;;;;;;15.82;5.63;;;18.10;99.90;;;;;;5018541;28;20041;-86
2022/07/28 02:11:39;;;;;;;8.93;5.10;;;18.10;99.90;;;;;;5001849;28;20010;-87
2022/07/28 02:14:12;;;;;;;6.63;4.13;;;18.10;99.90;;;;;;5018039;28;20022;-85
2022/07/28 02:16:41;;;;;;;6.72;5.10;;;18.10;99.90;;;;;;5017920;28;20051;-87
2022/07/28 02:19:08;;;;;;;6.90;4.28;;;18.10;99.90;;;;;;5001563;28;20049;-87
2022/07/28 02:21:35;;;;;;;7.10;4.78;;;18.10;99.90;;;;;;5018722;28;20038;-86
2022/07/28 02:24:03;;;;;;;7.90;4.72;;;18.10;99.90;;;;;;5001490;28;20053;-85
2022/07/28 02:26:39;;;;;;;12.20;4.88;;;18.10;99.90;;;;;;5018626;28;20042;-85
2022/07/28 02:29:09;;;;;;;7.68;4.75;;;18.10;99.90;;;;;;5016016;28;20042;-86
2022/07/28 02:32:05;;;;;;;6.03;4.32;;;18.10;99.90;;;;;;5011443;28;20030;-87
2022/07/28 02:34:33;;;;;;;9.80;4.80;;;18.20;99.90;;;;;;4990954;28;20037;-87
2022/07/28 02:37:02;;;;;;;9.93;4.97;;;18.20;99.90;;;;;;4977978;28;20041;-87
2022/07/28 02:39:50;;;;;;;11.02;4.63;;;18.40;99.90;;;;;;4983676;28;20050;-87
2022/07/28 02:42:25;;;;;;;8.25;4.22;;;18.50;99.90;;;;;;5017236;28;20031;-87
2022/07/28 02:44:57;;;;;;;9.60;4.43;;;18.70;99.90;;;;;;5001499;28;20030;-87
2022/07/28 02:47:27;;;;;;;8.20;4.30;;;18.70;99.90;;;;;;4995644;28;20038;-87
2022/07/28 02:49:56;;;;;;;10.52;4.22;;;18.70;99.90;;;;;;4978664;28;20026;-86
2022/07/28 02:52:24;;;;;;;7.13;4.50;;;18.80;99.90;;;;;;4994291;28;20027;-86
2022/07/28 02:54:53;;;;;;;6.70;4.18;;;18.70;99.90;;;;;;5013871;28;20018;-86
2022/07/28 02:57:21;;;;;;;14.05;5.45;;;18.60;99.90;;;;;;5018819;28;20039;-87
2022/07/28 02:59:50;;;;;;;10.35;4.97;;;18.50;99.90;;;;;;5004537;28;20050;-84
2022/07/28 03:02:20;;;;;;;11.18;5.05;;;18.30;99.90;;;;;;5002280;28;20069;-87
2022/07/28 03:04:57;;;;;;;8.13;4.28;;;18.20;99.90;;;;;;5019789;28;20489;-86
2022/07/28 03:07:25;;;;;;;5.75;4.30;;;18.30;99.90;;;;;;5002661;28;20061;-87
2022/07/28 03:09:51;;;;;;;8.70;5.25;;;18.20;99.90;;;;;;4999677;28;20123;-86
2022/07/28 03:12:17;;;;;;;13.40;5.10;;;18.20;99.90;;;;;;5012274;28;20030;-88
2022/07/28 03:14:43;;;;;;;10.98;5.20;;;18.10;99.90;;;;;;4994893;28;20106;-86
2022/07/28 03:17:09;;;;;;;7.97;5.00;;;18.00;99.90;;;;;;5011797;28;20038;-87
2022/07/28 03:19:35;;;;;;;7.15;4.30;;;18.00;99.90;;;;;;5013573;28;20026;-87
2022/07/28 03:22:01;;;;;;;7.22;5.03;;;17.90;99.90;;;;;;5013268;28;20034;-86
2022/07/28 03:24:31;;;;;;;12.18;4.78;;;17.90;99.90;;;;;;5011537;28;20015;-88
2022/07/28 03:26:58;;;;;;;6.95;4.32;;;18.00;99.90;;;;;;5013789;28;20030;-87
2022/07/28 03:29:28;;;;;;;8.93;4.72;;;18.00;99.90;;;;;;5019915;28;20070;-86
2022/07/28 03:31:58;;;;;;;8.82;4.18;;;18.10;99.90;;;;;;4986647;28;20023;-88
2022/07/28 03:34:24;;;;;;;11.38;4.47;;;18.30;99.90;;;;;;5019483;28;20058;-88
2022/07/28 03:36:58;;;;;;;6.25;4.63;;;18.30;99.90;;;;;;5019449;28;20029;-87
2022/07/28 03:39:28;;;;;;;8.70;5.15;;;18.30;99.90;;;;;;5003417;28;20026;-88
2022/07/28 03:41:56;;;;;;;6.47;4.40;;;18.20;99.90;;;;;;5004261;28;20042;-86
2022/07/28 03:44:23;;;;;;;11.00;4.60;;;18.20;99.90;;;;;;5004129;28;20006;-86
2022/07/28 03:46:49;;;;;;;7.60;4.68;;;18.10;99.90;;;;;;5019782;28;20029;-86
2022/07/28 03:49:15;;;;;;;10.93;4.65;;;18.10;99.90;;;;;;5019660;28;20014;-87
2022/07/28 03:51:41;;;;;;;8.43;4.25;;;18.00;99.90;;;;;;5018309;28;20034;-87
2022/07/28 03:54:07;;;;;;;11.82;4.75;;;18.00;99.90;;;;;;4977352;28;20522;-86
2022/07/28 03:56:33;;;;;;;13.75;4.63;;;17.90;99.90;;;;;;4995633;28;20049;-87
2022/07/28 03:58:59;;;;;;;12.02;4.75;;;17.90;99.90;;;;;;5003093;28;20034;-86
2022/07/28 04:01:25;;;;;;;14.32;4.70;;;17.90;99.90;;;;;;5003621;28;20074;-87
2022/07/28 04:03:51;;;;;;;8.65;4.82;;;17.90;99.90;;;;;;5003083;28;20025;-85
2022/07/28 04:06:17;;;;;;;8.93;4.18;;;17.80;99.90;;;;;;5020495;28;20014;-85
2022/07/28 04:08:43;;;;;;;9.15;4.20;;;17.80;99.90;;;;;;4997655;28;20030;-88
2022/07/28 04:11:09;;;;;;;8.63;4.43;;;17.80;99.90;;;;;;4991743;28;20034;-86
2022/07/28 04:13:35;;;;;;;7.93;4.40;;;17.80;99.90;;;;;;5006468;28;20030;-87
2022/07/28 04:16:01;;;;;;;12.00;4.43;;;17.70;99.90;;;;;;5006780;22;20050;-78
2022/07/28 04:18:27;;;;;;;11.85;4.78;;;17.70;99.90;;;;;;5030845;28;20053;-79
2022/07/28 04:20:54;;;;;;;8.70;4.30;;;17.70;99.90;;;;;;5001228;28;20026;-77
2022/07/28 04:23:21;;;;;;;17.27;4.90;;;17.60;99.90;;;;;;5031603;28;20029;-79
2022/07/28 04:25:47;;;;;;;9.20;4.05;;;17.60;99.90;;;;;;5011563;28;20098;-79
2022/07/28 04:28:14;;;;;;;8.90;4.07;;;17.60;99.90;;;;;;5006690;28;20077;-81
2022/07/28 04:30:40;;;;;;;12.95;3.80;;;17.60;99.90;;;;;;5023195;28;20034;-80
2022/07/28 04:33:06;;;;;;;10.07;4.35;;;17.70;99.90;;;;;;5005663;28;20081;-80
2022/07/28 04:35:33;;;;;;;10.57;4.30;;;17.80;99.90;;;;;;5025331;28;20036;-78
2022/07/28 04:38:00;;;;;;;16.88;4.90;;;17.80;99.90;;;;;;5013439;28;20060;-80
2022/07/28 04:40:27;;;;;;;7.47;4.88;;;17.80;99.90;;;;;;5030598;28;20437;-80
2022/07/28 04:42:53;;;;;;;7.28;4.10;;;17.70;99.90;;;;;;5029391;28;20033;-77
2022/07/28 04:45:19;;;;;;;7.78;4.25;;;17.70;99.90;;;;;;5031214;28;20036;-77
2022/07/28 04:47:45;;;;;;;5.65;3.95;;;17.80;99.90;;;;;;5032900;28;20449;-77
2022/07/28 04:50:14;;;;;;;11.07;4.38;;;17.90;99.90;;;;;;5031207;28;20034;-78
2022/07/28 04:52:40;;;;;;;6.15;3.78;;;18.00;99.90;;;;;;5029592;28;20026;-77
2022/07/28 04:55:06;;;;;;;8.30;3.88;;;18.00;99.90;;;;;;5012453;28;20029;-77
2022/07/28 04:57:32;;;;;;;7.75;4.25;;;18.00;99.90;;;;;;5030581;28;20037;-78
2022/07/28 04:59:59;;;;;;;9.57;4.20;;;18.00;99.90;;;;;;5010087;28;20056;-79
2022/07/28 05:02:25;;;;;;;8.88;3.72;;;18.10;99.90;;;;;;5005083;28;20155;-77
2022/07/28 05:04:51;;;;;;;8.73;3.92;;;18.20;99.90;;;;;;5004179;28;20037;-77
2022/07/28 05:07:17;;;;;;;6.90;4.03;;;18.20;99.90;;;;;;5023315;28;20024;-79
2022/07/28 05:09:43;;;;;;;13.25;4.03;;;18.10;99.90;;;;;;5025732;28;20069;-79
2022/07/28 05:12:09;;;;;;;10.30;4.15;;;18.10;99.90;;;;;;5025234;28;20026;-78
2022/07/28 05:14:35;;;;;;;10.52;4.15;;;18.00;99.90;;;;;;5030828;28;20066;-77
2022/07/28 05:17:01;;;;;;;6.03;3.85;;;18.00;99.90;;;;;;5031908;28;20038;-79
2022/07/28 05:19:27;;;;;;;7.07;3.67;;;18.20;99.90;;;;;;5032338;28;20018;-79
2022/07/28 05:21:52;;;;;;;4.47;3.35;;;18.40;99.90;;;;;;5016192;28;20006;-81
2022/07/28 05:24:18;;;;;;;14.20;3.75;;;18.60;99.90;;;;;;5032393;28;20048;-81
2022/07/28 05:26:44;;;;;;;16.48;4.25;;;18.70;99.90;;;;;;5010892;28;20022;-78
2022/07/28 05:29:10;;;;;;;10.13;3.70;;;18.70;99.90;;;;;;5010541;28;20041;-78
2022/07/28 05:31:36;;;;;;;15.30;3.60;;;18.80;99.90;;;;;;5008341;28;20022;-80
2022/07/28 05:34:01;;;;;;;11.63;4.60;;;18.90;99.90;;;;;;5007683;28;20032;-78
2022/07/28 05:36:27;;;;;;;8.35;3.92;;;18.90;99.90;;;;;;5025113;28;20026;-80
2022/07/28 05:38:53;;;;;;;8.80;3.45;;;18.90;99.90;;;;;;5006531;28;20330;-79
2022/07/28 05:41:19;;;;;;;8.05;3.53;;;19.00;99.90;;;;;;5025175;28;20022;-79
2022/07/28 05:43:44;;;;;;;10.73;3.60;;;19.00;99.90;;;;;;5026472;28;20108;-78
2022/07/28 05:46:10;;;;;;;11.73;4.15;;;19.10;99.90;;;;;;5023068;28;20034;-80
2022/07/28 05:48:37;;;;;;;15.20;4.10;;;19.10;99.90;;;;;;5022676;28;20537;-80
2022/07/28 05:51:03;;;;;;;10.10;3.97;;;19.10;99.90;;;;;;5006173;28;20054;-80
2022/07/28 05:53:29;;;;;;;9.63;3.58;;;19.10;99.90;;;;;;5024911;28;20033;-80
2022/07/28 05:55:55;;;;;;;6.57;3.42;;;19.20;99.90;;;;;;5024315;28;20018;-81
2022/07/28 05:58:21;;;;;;;6.75;3.10;;;19.10;99.90;;;;;;4993861;28;20034;-80
2022/07/28 06:00:47;;;;;;;6.80;3.13;;;19.20;99.90;;;;;;5024443;28;20018;-82
2022/07/28 06:03:13;;;;;;;9.25;3.92;;;19.20;99.90;;;;;;5005691;28;20030;-80
2022/07/28 06:05:39;;;;;;;8.30;3.50;;;19.30;99.90;;;;;;5004480;28;20045;-79
2022/07/28 06:08:05;;;;;;;8.02;3.05;;;19.50;99.90;;;;;;5022217;28;20033;-79
2022/07/28 06:11:16;;;;;;;7.88;3.47;;;19.70;99.90;;;;;;5004231;28;20034;-77
2022/07/28 06:13:18;;;;;;;8.23;3.40;;;20.10;99.90;;;;;;5012189;28;20041;-80
2022/07/28 06:15:46;;;;;;;11.38;4.38;;;20.60;99.90;;;;;;5024477;28;20049;-78
2022/07/28 06:18:12;;;;;;;9.90;3.15;;;20.80;99.90;;;;;;5020501;28;20045;-80
2022/07/28 06:20:38;;;;;;;12.88;3.42;;;20.80;99.90;;;;;;5003726;28;20494;-80
2022/07/28 06:23:04;;;;;;;8.85;3.70;;;20.80;99.90;;;;;;5021922;28;20061;-79
2022/07/28 06:25:30;;;;;;;10.77;3.90;;;20.80;99.90;;;;;;5003317;28;20029;-79
2022/07/28 06:28:03;;;;;;;6.85;3.58;;;20.70;99.90;;;;;;5003830;28;20111;-77
2022/07/28 06:30:30;;;;;;;10.02;3.80;;;20.70;99.90;;;;;;5003183;28;20541;-80
2022/07/28 06:32:56;;;;;;;7.25;3.72;;;20.70;99.90;;;;;;5021134;28;20049;-79
2022/07/28 06:35:23;;;;;;;7.70;3.28;;;20.70;99.90;;;;;;5021520;28;20045;-78
2022/07/28 06:37:50;;;;;;;9.38;3.13;;;20.80;99.90;;;;;;5028074;28;20052;-78
2022/07/28 06:40:18;;;;;;;5.80;3.30;;;21.10;99.90;;;;;;5020672;28;20029;-81
2022/07/28 06:42:45;;;;;;;8.80;3.78;;;21.30;99.90;;;;;;5011954;28;20082;-78
2022/07/28 06:45:12;;;;;;;11.20;3.60;;;21.40;99.90;;;;;;5011999;28;20022;-79
2022/07/28 06:47:38;;;;;;;12.40;3.75;;;21.30;99.90;;;;;;5022864;28;20033;-79
2022/07/28 06:50:05;;;;;;;8.88;3.53;;;21.20;99.90;;;;;;5023450;28;20029;-80
2022/07/28 06:52:32;;;;;;;11.20;3.55;;;20.90;99.90;;;;;;5024050;28;20022;-79
2022/07/28 06:54:59;;;;;;;12.70;3.30;;;20.70;99.90;;;;;;5022987;28;20033;-78
2022/07/28 06:57:26;;;;;;;10.10;3.88;;;20.60;99.90;;;;;;5006168;28;20492;-80
2022/07/28 06:59:52;;;;;;;9.82;3.70;;;20.60;99.90;;;;;;5023312;28;20034;-79
2022/07/28 07:02:19;;;;;;;7.68;3.47;;;20.50;99.90;;;;;;5024367;28;20386;-78
2022/07/28 07:04:45;;;;;;;10.20;3.90;;;20.40;99.90;;;;;;5029187;28;20030;-79
2022/07/28 07:07:11;;;;;;;11.80;3.63;;;20.50;99.90;;;;;;5008780;28;20040;-79
2022/07/28 07:09:37;;;;;;;19.08;3.83;;;20.60;99.90;;;;;;5022433;28;20063;-80
2022/07/28 07:12:03;;;;;;;5.88;3.33;;;20.70;99.90;;;;;;5023656;28;20030;-79
2022/07/28 07:14:30;;;;;;;11.43;3.17;;;21.00;99.90;;;;;;5021856;28;20040;-81
2022/07/28 07:16:55;;;;;;;8.60;4.13;;;21.20;99.90;;;;;;5004752;28;20230;-81
2022/07/28 07:19:21;;;;;;;13.13;4.03;;;21.60;99.90;;;;;;5025011;28;20026;-80
2022/07/28 07:21:48;;;;;;;8.38;3.08;;;21.90;99.90;;;;;;5029091;28;20050;-80
2022/07/28 07:24:14;;;;;;;13.95;3.05;;;22.00;99.90;;;;;;5022532;28;20026;-80
2022/07/28 07:26:40;;;;;;;8.43;3.42;;;22.20;99.90;;;;;;5005245;28;20026;-79
2022/07/28 07:29:07;;;;;;;10.25;4.03;;;22.30;99.90;;;;;;5021450;28;20083;-79
2022/07/28 07:31:37;;;;;;;13.55;3.90;;;22.50;99.90;;;;;;5033014;28;20010;-80
2022/07/28 07:34:05;;;;;;;12.93;3.75;;;22.70;99.90;;;;;;5032834;28;20293;-78
2022/07/28 07:36:31;;;;;;;10.57;3.50;;;22.70;99.90;;;;;;5029287;28;20375;-81
2022/07/28 07:38:57;;;;;;;8.98;4.07;;;22.70;99.90;;;;;;5024807;28;20033;-78
2022/07/28 07:41:23;;;;;;;8.05;3.35;;;22.70;99.90;;;;;;5024250;28;20018;-80
2022/07/28 07:43:50;;;;;;;7.97;3.40;;;22.70;99.90;;;;;;4990977;28;20061;-81
2022/07/28 07:46:17;;;;;;;12.20;4.00;;;22.70;99.90;;;;;;5029806;28;20095;-77
2022/07/28 07:48:43;;;;;;;6.65;3.45;;;22.80;99.90;;;;;;5033418;28;20022;-78
2022/07/28 07:51:09;;;;;;;9.23;3.63;;;23.00;99.90;;;;;;5033008;28;20064;-79
2022/07/28 07:53:35;;;;;;;11.55;4.22;;;23.20;99.90;;;;;;5031957;28;20033;-81
2022/07/28 07:56:01;;;;;;;10.35;3.13;;;23.30;99.90;;;;;;5027765;28;20112;-80
2022/07/28 07:58:27;;;;;;;6.10;3.03;;;23.40;99.90;;;;;;5026162;28;20049;-82
2022/07/28 08:00:52;;;;;;;9.02;3.45;;;23.50;99.90;;;;;;5026442;28;20033;-79
2022/07/28 08:03:18;;;;;;;10.80;3.20;;;23.50;99.90;;;;;;5026449;28;20024;-79
2022/07/28 08:05:45;;;;;;;16.65;4.20;;;23.60;99.90;;;;;;5025475;28;20084;-80
2022/07/28 08:08:11;;;;;;;10.48;4.35;;;23.70;99.90;;;;;;5024682;28;20115;-80
2022/07/28 08:10:38;;;;;;;8.70;3.78;;;23.60;99.90;;;;;;5024741;28;20029;-80
2022/07/28 08:13:06;;;;;;;11.18;3.72;;;23.60;99.90;;;;;;5008173;28;20566;-83
2022/07/28 08:15:33;;;;;;;7.75;3.50;;;23.50;99.90;;;;;;5024491;28;20052;-80
2022/07/28 08:17:59;;;;;;;5.53;4.13;;;23.60;99.90;;;;;;5026518;28;20021;-81
2022/07/28 08:20:25;;;;;;;10.13;4.25;;;23.70;99.90;;;;;;5033774;28;20014;-79
2022/07/28 08:22:53;;;;;;;7.88;4.05;;;23.90;99.90;;;;;;5034082;28;20045;-79
2022/07/28 08:25:21;;;;;;;7.68;4.18;;;23.90;99.90;;;;;;5014107;28;20028;-79
2022/07/28 08:27:47;;;;;;;13.23;4.57;;;23.90;99.90;;;;;;5026941;28;20102;-81
2022/07/28 08:30:19;;;;;;;5.85;3.95;;;23.80;99.90;;;;;;5028725;28;20026;-80
2022/07/28 08:32:46;;;;;;;9.07;3.92;;;23.80;99.90;;;;;;5030995;28;20025;-80
2022/07/28 08:35:12;;;;;;;7.60;3.42;;;23.90;99.90;;;;;;5031275;28;20029;-80
2022/07/28 08:37:38;;;;;;;9.77;3.47;;;24.20;99.90;;;;;;5030855;28;20445;-78
2022/07/28 08:40:13;;;;;;;6.97;3.35;;;24.50;99.90;;;;;;5027240;28;20025;-83
2022/07/28 08:42:57;;;;;;;8.80;4.15;;;24.90;99.90;;;;;;5025419;28;20025;-83
2022/07/28 08:45:27;;;;;;;8.40;4.05;;;25.20;99.90;;;;;;5006944;28;20049;-82
2022/07/28 08:47:55;;;;;;;7.65;3.95;;;25.30;99.70;;;;;;5024193;28;20048;-82
2022/07/28 08:50:23;;;;;;;9.30;3.78;;;25.20;99.70;;;;;;5026403;28;20028;-80
2022/07/28 08:52:50;;;;;;;8.90;3.72;;;25.20;99.60;;;;;;5029723;28;20141;-83
2022/07/28 08:55:27;;;;;;;13.10;4.07;;;25.00;99.80;;;;;;5029058;28;20025;-80
2022/07/28 08:57:55;;;;;;;9.60;4.18;;;24.90;99.90;;;;;;5013559;28;20081;-80
2022/07/28 09:00:22;;;;;;;12.50;3.88;;;24.80;99.90;;;;;;5028508;28;20026;-81
2022/07/28 09:02:49;;;;;;;15.02;5.00;;;24.80;99.90;;;;;;5023744;28;20064;-81
2022/07/28 09:05:15;;;;;;;10.23;4.43;;;24.80;99.90;;;;;;5026412;28;20041;-80
2022/07/28 09:07:43;;;;;;;7.47;4.55;;;24.60;99.90;;;;;;5023504;28;20038;-78
2022/07/28 09:10:10;;;;;;;11.73;5.13;;;24.40;99.90;;;;;;5003573;28;20026;-81
2022/07/28 09:12:38;;;;;;;11.27;4.70;;;24.30;99.90;;;;;;5007092;28;20038;-82
2022/07/28 09:15:06;;;;;;;9.45;4.65;;;24.20;99.90;;;;;;5006899;28;20017;-80
2022/07/28 09:17:33;;;;;;;10.20;4.40;;;24.10;99.90;;;;;;5027243;28;20129;-81
2022/07/28 09:19:59;;;;;;;9.00;3.90;;;24.10;99.90;;;;;;5029086;28;20037;-80
2022/07/28 09:22:26;;;;;;;9.55;4.20;;;24.20;99.90;;;;;;5025235;28;20030;-80
2022/07/28 09:24:52;;;;;;;11.18;5.32;;;24.30;99.90;;;;;;5029424;28;20025;-80
2022/07/28 09:27:18;;;;;;;6.90;4.03;;;24.40;99.90;;;;;;5034408;28;20038;-80
2022/07/28 09:29:46;;;;;;;11.57;4.45;;;24.50;99.90;;;;;;5034346;28;20072;-80
2022/07/28 09:32:14;;;;;;;8.65;4.47;;;24.60;99.90;;;;;;5016977;28;20029;-80
2022/07/28 09:34:46;;;;;;;11.80;4.75;;;24.60;99.90;;;;;;5028314;28;20393;-80
2022/07/28 09:37:20;;;;;;;9.80;5.70;;;24.70;99.90;;;;;;5023320;28;20034;-82
2022/07/28 09:39:48;;;;;;;11.30;5.60;;;24.80;99.90;;;;;;5028084;28;20026;-79
2022/07/28 09:42:14;;;;;;;17.23;4.18;;;24.90;99.90;;;;;;5023582;28;20030;-80
2022/07/28 09:44:40;;;;;;;13.00;4.78;;;25.20;99.80;;;;;;5022136;28;20092;-81
2022/07/28 09:47:32;;;;;;;8.05;4.03;;;25.60;99.30;;;;;;5021939;28;20028;-80
2022/07/28 09:49:59;;;;;;;11.68;4.13;;;26.20;98.70;;;;;;5023032;28;20034;-79
2022/07/28 09:52:30;;;;;;;8.73;3.60;;;27.10;97.30;;;;;;5022864;28;20124;-81
2022/07/28 09:55:05;;;;;;;9.60;5.05;;;27.50;96.50;;;;;;5022742;28;20033;-80
2022/07/28 09:57:33;;;;;;;6.18;4.05;;;27.70;96.00;;;;;;5022299;28;20092;-79
2022/07/28 09:59:59;;;;;;;9.20;3.70;;;28.10;95.30;;;;;;5004397;28;20398;-82
2022/07/28 10:02:32;;;;;;;7.95;4.28;;;28.40;94.90;;;;;;5022352;28;20022;-82
2022/07/28 10:04:59;;;;;;;4.75;2.90;;;28.40;94.00;;;;;;5023239;28;20076;-82
2022/07/28 10:07:29;;;;;;;10.52;3.90;;;28.10;94.10;;;;;;5022344;28;20030;-83
2022/07/28 10:10:06;;;;;;;8.18;3.88;;;28.50;93.70;;;;;;5021483;28;20026;-82
2022/07/28 10:12:36;;;;;;;6.50;3.67;;;28.50;93.10;;;;;;5018449;28;20042;-81
2022/07/28 10:18:02;;;;;;;6.38;3.85;;;28.70;92.60;;;;;;5076110;22;20049;-86
2022/07/28 10:20:31;;;;;;;11.23;3.80;;;29.40;91.70;;;;;;5038005;28;20056;-86
2022/07/28 10:23:05;;;;;;;7.53;3.95;;;30.00;90.80;;;;;;5055312;28;20026;-87
2022/07/28 10:25:33;;;;;;;5.95;4.45;;;31.00;89.40;;;;;;5038038;28;20030;-86
2022/07/28 10:28:00;;;;;;;5.68;4.10;;;31.30;87.00;;;;;;5037636;28;20104;-85
2022/07/28 10:30:33;;;;;;;9.57;3.58;;;32.50;85.10;;;;;;5053981;28;20030;-85
2022/07/28 10:33:03;;;;;;;7.47;3.67;;;34.20;80.50;;;;;;5020545;28;20684;-87
2022/07/28 10:35:31;;;;;;;6.38;4.00;;;34.30;77.40;;;;;;5048601;28;20068;-88
2022/07/28 10:38:03;;;;;;;6.93;4.03;;;33.90;76.30;;;;;;5044517;28;20030;-88
2022/07/28 10:40:45;;;;;;;8.18;3.80;;;33.00;75.80;;;;;;5020994;28;20493;-90
2022/07/28 10:43:12;;;;;;;8.13;4.60;;;33.90;75.30;;;;;;5029697;28;20066;-88
2022/07/28 10:45:39;;;;;;;7.15;3.88;;;35.20;72.70;;;;;;5032515;28;20448;-86
2022/07/28 10:48:06;;;;;;;6.20;4.28;;;36.80;70.20;;;;;;5037443;28;20029;-84
2022/07/28 10:50:34;;;;;;;9.82;3.58;;;38.30;65.90;;;;;;5047083;28;20018;-86
2022/07/28 10:53:02;;;;;;;7.65;3.55;;;39.70;62.70;;;;;;5009907;28;20057;-86
2022/07/28 10:55:53;;;;;;;5.78;3.45;;;39.80;60.30;;;;;;5028832;28;20244;-87
2022/07/28 10:58:45;;;;;;;5.50;3.65;;;39.10;59.50;;;;;;5043882;28;20076;-84
2022/07/28 11:01:33;;;;;;;7.30;3.78;;;38.40;60.10;;;;;;5046914;28;20026;-83
2022/07/28 11:03:59;;;;;;;5.15;3.17;;;39.40;58.80;;;;;;5047534;28;20060;-84
2022/07/28 11:06:25;;;;;;;7.57;3.45;;;40.80;57.70;;;;;;5048673;28;20014;-83
2022/07/28 11:08:51;;;;;;;8.20;3.58;;;41.80;55.50;;;;;;5032260;28;20033;-84
2022/07/28 11:11:46;;;;;;;6.07;3.13;;;42.70;54.60;;;;;;5045781;28;20029;-84
2022/07/28 11:14:42;;;;;;;7.00;3.05;;;43.90;52.60;;;;;;5050786;28;20040;-84
2022/07/28 11:17:09;;;;;;;3.53;3.10;;;43.80;51.00;;;;;;5060468;28;20051;-84
2022/07/28 11:19:44;;;;;;;4.43;2.78;;;42.60;50.70;;;;;;5060347;28;20068;-84
2022/07/28 11:24:57;;;;;;;9.77;3.05;;;42.10;51.10;;;;;;5029937;28;20033;-86
2022/07/28 11:27:53;;;;;;;6.03;2.63;;;41.80;50.90;;;;;;5019224;28;20029;-87
2022/07/28 11:30:24;;;;;;;3.28;2.67;;;42.50;50.00;;;;;;5050265;28;20038;-86
2022/07/28 11:32:52;;;;;;;6.55;3.05;;;43.30;48.80;;;;;;5037181;28;20093;-85
2022/07/28 11:35:19;;;;;;;4.50;2.58;;;42.80;48.40;;;;;;5052710;28;20233;-87
2022/07/28 11:38:00;;;;;;;4.15;2.72;;;41.40;49.20;;;;;;5036583;28;20067;-86
2022/07/28 11:40:39;;;;;;;3.75;2.53;;;42.00;49.30;;;;;;5049396;28;20429;-87
2022/07/28 11:43:23;;;;;;;3.30;2.63;;;42.50;48.70;;;;;;5048721;28;20072;-88
2022/07/28 11:45:50;;;;;;;;;;;42.50;48.40;;;;;;5044573;28;20029;-89
2022/07/28 11:48:20;;;;;;;5.68;3.30;;;42.90;48.40;;;;;;5014240;28;19920;-86
2022/07/28 11:51:04;;;;;;;5.22;3.00;;;44.10;47.30;;;;;;5038888;28;20065;-85
2022/07/28 11:53:39;;;;;;;3.72;2.90;;;43.10;47.00;;;;;;5021427;28;20045;-87
2022/07/28 11:56:10;;;;;;;7.57;3.13;;;43.20;47.60;;;;;;5034450;28;20033;-87
2022/07/28 11:58:37;;;;;;;3.50;2.63;;;43.60;47.00;;;;;;5049792;28;20018;-86
2022/07/28 12:01:14;;;;;;;2.67;2.28;;;43.20;46.80;;;;;;5034731;28;20030;-86
2022/07/28 12:03:41;;;;;;;5.80;2.35;;;43.40;45.90;;;;;;5051443;28;20063;-86
2022/07/28 12:06:08;;;;;;;3.65;2.35;;;43.00;46.20;;;;;;5055345;28;20022;-86
2022/07/28 12:09:03;;;;;;;4.13;2.33;;;43.00;45.60;;;;;;5039130;28;20077;-85
2022/07/28 12:11:34;;;;;;;5.80;2.45;;;41.90;45.50;;;;;;5058201;28;20124;-85
2022/07/28 12:14:02;;;;;;;2.17;1.98;;;42.10;45.70;;;;;;5041520;28;20020;-84
2022/07/28 12:16:29;;;;;;;4.53;2.25;;;42.80;45.40;;;;;;5041128;28;20296;-85
2022/07/28 12:18:55;;;;;;;5.72;2.67;;;42.70;45.20;;;;;;5058250;28;20021;-85
2022/07/28 12:21:40;;;;;;;2.67;2.00;;;43.10;45.20;;;;;;5040193;28;20093;-85
2022/07/28 12:24:10;;;;;;;3.22;2.13;;;43.00;44.30;;;;;;5040238;28;20052;-86
2022/07/28 12:26:38;;;;;;;4.40;2.25;;;44.00;44.00;;;;;;5057355;28;20021;-86
2022/07/28 12:29:04;;;;;;;5.28;2.33;;;44.70;44.10;;;;;;5038630;28;20057;-84
2022/07/28 12:31:32;;;;;;;2.75;2.25;;;44.60;43.80;;;;;;5055045;28;20056;-87
2022/07/28 12:34:10;;;;;;;3.55;2.75;;;44.90;43.50;;;;;;5037997;28;20029;-87
2022/07/28 12:36:37;;;;;;;3.05;2.58;;;44.50;43.50;;;;;;5054923;28;20025;-86
2022/07/28 12:39:06;;;;;;;6.43;2.72;;;43.50;44.50;;;;;;5036748;28;20026;-86
2022/07/28 12:41:34;;;;;;;4.97;2.45;;;43.50;44.70;;;;;;5053496;28;20060;-88
2022/07/28 12:44:01;;;;;;;4.93;2.63;;;43.60;44.60;;;;;;5031223;28;20025;-86
2022/07/28 12:46:29;;;;;;;25.67;3.72;;;43.60;44.40;;;;;;5014177;28;20033;-87
2022/07/28 12:49:00;;;;;;;3.47;2.28;;;44.10;44.20;;;;;;5028852;28;20041;-86
2022/07/28 12:51:40;;;;;;;11.85;2.53;;;44.50;43.50;;;;;;5010249;28;20026;-88
2022/07/28 12:54:08;;;;;;;3.38;2.00;;;44.10;43.40;;;;;;5052424;28;20042;-87
2022/07/28 12:56:43;;;;;;;7.07;3.08;;;43.70;43.20;;;;;;5035062;28;20044;-87
2022/07/28 12:59:11;;;;;;;5.28;2.38;;;43.80;43.30;;;;;;5024800;28;20014;-88